createdAt,value
2022-09-27T00:00:37.698Z,97.12
2022-09-27T00:01:40.801Z,97.72
2022-09-27T00:02:43.579Z,97.52
2022-09-27T00:03:46.313Z,97.67
2022-09-27T00:04:49.185Z,97.68
2022-09-27T00:06:21.542Z,97.81
2022-09-27T00:07:24.449Z,97.52
2022-09-27T00:08:27.235Z,98.27
2022-09-27T00:09:30.440Z,98.15
2022-09-27T00:10:33.124Z,98.31
2022-09-27T00:11:39.377Z,98.20
2022-09-27T00:12:42.498Z,98.16
2022-09-27T00:13:45.456Z,98.26
2022-09-27T00:14:48.201Z,98.54
2022-09-27T00:15:57.372Z,98.13
2022-09-27T00:17:00.252Z,98.44
2022-09-27T00:18:03.061Z,98.28
2022-09-27T00:19:14.438Z,98.61
2022-09-27T00:20:17.285Z,98.10
2022-09-27T00:21:20.294Z,98.50
2022-09-27T00:22:24.389Z,99.03
2022-09-27T00:23:27.146Z,98.88
2022-09-27T00:24:29.862Z,98.66
2022-09-27T00:25:32.714Z,98.50
2022-09-27T00:26:35.845Z,97.98
2022-09-27T00:27:38.511Z,98.13
2022-09-27T00:28:41.723Z,97.89
2022-09-27T00:29:45.462Z,97.52
2022-09-27T00:30:48.186Z,97.92
2022-09-27T00:31:51.015Z,98.64
2022-09-27T00:32:54.151Z,98.33
2022-09-27T00:34:01.364Z,98.56
2022-09-27T00:35:04.660Z,99.03
2022-09-27T00:36:07.564Z,99.06
2022-09-27T00:37:11.623Z,98.89
2022-09-27T00:38:14.527Z,98.96
2022-09-27T00:39:17.931Z,99.31
2022-09-27T00:40:24.420Z,99.35
2022-09-27T00:41:34.254Z,99.39
2022-09-27T00:42:37.226Z,99.06
2022-09-27T00:43:52.388Z,99.09
2022-09-27T00:45:07.202Z,99.24
2022-09-27T00:46:12.166Z,98.87
2022-09-27T00:47:45.923Z,98.92
2022-09-27T00:49:02.351Z,98.76
2022-09-27T00:50:11.099Z,98.99
2022-09-27T00:51:14.482Z,99.38
2022-09-27T00:52:24.501Z,98.77
2022-09-27T00:53:31.644Z,98.76
2022-09-27T00:54:38.097Z,98.45
2022-09-27T00:56:10.315Z,98.39
2022-09-27T00:57:13.279Z,98.63
2022-09-27T00:58:22.002Z,98.49
2022-09-27T00:59:34.142Z,98.37
2022-09-27T01:00:40.093Z,98.08
2022-09-27T01:01:43.493Z,98.34
2022-09-27T01:02:50.267Z,98.29
2022-09-27T01:04:00.047Z,98.57
2022-09-27T01:05:05.052Z,98.31
2022-09-27T01:06:09.582Z,98.27
2022-09-27T01:07:12.385Z,97.64
2022-09-27T01:08:15.102Z,97.23
2022-09-27T01:09:18.564Z,97.51
2022-09-27T01:10:23.059Z,97.31
2022-09-27T01:11:47.096Z,97.59
2022-09-27T01:13:07.445Z,98.20
2022-09-27T01:14:22.035Z,98.26
2022-09-27T01:15:43.988Z,98.11
2022-09-27T01:17:07.844Z,97.91
2022-09-27T01:18:27.838Z,97.77
2022-09-27T01:20:06.252Z,96.84
2022-09-27T01:21:11.705Z,97.89
2022-09-27T01:22:37.768Z,98.69
2022-09-27T01:24:01.415Z,98.61
2022-09-27T01:25:33.271Z,98.74
2022-09-27T01:26:41.971Z,98.18
2022-09-27T01:28:07.550Z,98.59
2022-09-27T01:29:22.162Z,98.72
2022-09-27T01:30:37.204Z,98.16
2022-09-27T01:31:51.680Z,97.82
2022-09-27T01:33:07.966Z,97.49
2022-09-27T01:34:31.371Z,97.28
2022-09-27T01:36:17.297Z,97.84
2022-09-27T01:37:32.272Z,98.38
2022-09-27T01:39:12.503Z,98.36
2022-09-27T01:40:30.253Z,98.28
2022-09-27T01:41:43.545Z,98.80
2022-09-27T01:43:10.476Z,98.70
2022-09-27T01:44:24.924Z,99.19
2022-09-27T01:45:37.419Z,98.87
2022-09-27T01:46:52.682Z,97.81
2022-09-27T01:48:00.712Z,97.84
2022-09-27T01:49:09.696Z,97.89
2022-09-27T01:50:26.446Z,98.27
2022-09-27T01:51:57.241Z,99.26
2022-09-27T01:53:08.079Z,99.59
2022-09-27T01:54:16.382Z,99.40
2022-09-27T01:55:23.997Z,98.38
2022-09-27T01:56:37.555Z,98.23
2022-09-27T01:57:46.609Z,98.40
2022-09-27T01:59:32.734Z,98.43
2022-09-27T02:00:37.162Z,97.76
2022-09-27T02:01:43.517Z,97.70
2022-09-27T02:02:59.511Z,97.21
2022-09-27T02:04:04.703Z,97.04
2022-09-27T02:05:10.378Z,96.67
2022-09-27T02:06:24.690Z,96.19
2022-09-27T02:07:50.300Z,95.76
2022-09-27T02:09:12.121Z,97.15
2022-09-27T02:10:32.865Z,98.17
2022-09-27T02:11:39.096Z,97.86
2022-09-27T02:12:52.111Z,96.40
2022-09-27T02:13:58.398Z,95.87
2022-09-27T02:15:13.034Z,95.71
2022-09-27T02:16:30.111Z,94.78
2022-09-27T02:17:48.226Z,94.90
2022-09-27T02:18:57.142Z,95.69
2022-09-27T02:20:05.633Z,96.18
2022-09-27T02:21:12.535Z,95.22
2022-09-27T02:22:44.812Z,94.17
2022-09-27T02:23:58.343Z,94.11
2022-09-27T02:25:25.196Z,93.60
2022-09-27T02:26:31.575Z,92.49
2022-09-27T02:27:40.666Z,93.18
2022-09-27T02:29:00.413Z,93.14
2022-09-27T02:30:12.200Z,93.66
2022-09-27T02:31:15.055Z,94.67
2022-09-27T02:32:17.915Z,95.03
2022-09-27T02:33:25.245Z,94.74
2022-09-27T02:34:31.816Z,94.86
2022-09-27T02:35:36.151Z,94.99
2022-09-27T02:36:39.012Z,94.96
2022-09-27T02:37:41.936Z,95.18
2022-09-27T02:38:45.225Z,95.55
2022-09-27T02:39:48.347Z,94.55
2022-09-27T02:40:51.383Z,93.97
2022-09-27T02:41:58.555Z,93.97
2022-09-27T02:43:04.093Z,93.71
2022-09-27T02:44:12.422Z,93.31
2022-09-27T02:45:18.465Z,93.11
2022-09-27T02:46:39.694Z,93.50
2022-09-27T02:48:28.962Z,93.24
2022-09-27T02:49:56.193Z,93.77
2022-09-27T02:51:25.359Z,95.28
2022-09-27T02:52:43.861Z,95.19
2022-09-27T02:53:49.390Z,95.04
2022-09-27T02:55:06.767Z,95.26
2022-09-27T02:56:33.395Z,95.23
2022-09-27T02:58:04.396Z,95.07
2022-09-27T02:59:16.405Z,94.77
2022-09-27T03:00:31.468Z,94.37
2022-09-27T03:02:13.556Z,94.54
2022-09-27T03:03:49.417Z,95.19
2022-09-27T03:05:01.667Z,95.59
2022-09-27T03:06:08.751Z,96.11
2022-09-27T03:07:12.972Z,96.07
2022-09-27T03:08:16.120Z,96.43
2022-09-27T03:09:24.512Z,96.91
2022-09-27T03:10:29.295Z,96.76
2022-09-27T03:11:33.713Z,97.17
2022-09-27T03:12:36.456Z,97.99
2022-09-27T03:13:55.901Z,98.20
2022-09-27T03:15:02.783Z,98.24
2022-09-27T03:16:06.889Z,97.99
2022-09-27T03:17:09.698Z,98.67
2022-09-27T03:18:12.463Z,98.80
2022-09-27T03:19:15.155Z,98.80
2022-09-27T03:20:18.150Z,98.76
2022-09-27T03:21:20.799Z,98.66
2022-09-27T03:22:23.513Z,98.50
2022-09-27T03:23:26.708Z,98.84
2022-09-27T03:24:29.529Z,99.22
2022-09-27T03:25:32.242Z,98.62
2022-09-27T03:26:35.133Z,98.95
2022-09-27T03:27:37.830Z,98.47
2022-09-27T03:28:40.504Z,98.71
2022-09-27T03:29:43.192Z,98.81
2022-09-27T03:30:46.826Z,98.71
2022-09-27T03:31:49.619Z,98.98
2022-09-27T03:32:52.226Z,98.99
2022-09-27T03:33:55.018Z,98.56
2022-09-27T03:34:57.740Z,97.86
2022-09-27T03:36:00.655Z,97.74
2022-09-27T03:37:03.457Z,98.53
2022-09-27T03:38:07.680Z,98.74
2022-09-27T03:39:10.313Z,99.00
2022-09-27T03:40:13.406Z,99.58
2022-09-27T03:41:16.064Z,99.70
2022-09-27T03:42:18.677Z,99.52
2022-09-27T03:43:21.463Z,99.55
2022-09-27T03:44:24.157Z,99.15
2022-09-27T03:45:26.716Z,98.96
2022-09-27T03:46:29.714Z,98.99
2022-09-27T03:47:32.416Z,99.29
2022-09-27T03:48:35.333Z,99.56
2022-09-27T03:49:37.974Z,99.67
2022-09-27T03:50:40.674Z,99.77
2022-09-27T03:51:43.442Z,99.60
2022-09-27T03:52:46.119Z,99.22
2022-09-27T03:53:49.676Z,98.94
2022-09-27T03:54:52.730Z,98.88
2022-09-27T03:55:55.357Z,99.41
2022-09-27T03:56:58.210Z,99.46
2022-09-27T03:58:01.111Z,99.36
2022-09-27T03:59:04.022Z,99.13
2022-09-27T04:00:07.172Z,99.08
2022-09-27T04:01:10.240Z,98.63
2022-09-27T04:02:12.936Z,98.85
2022-09-27T04:03:15.683Z,98.06
2022-09-27T04:04:18.911Z,97.97
2022-09-27T04:05:21.719Z,98.15
2022-09-27T04:06:24.405Z,98.18
2022-09-27T04:07:27.054Z,97.79
2022-09-27T04:08:30.405Z,98.38
2022-09-27T04:09:32.981Z,97.92
2022-09-27T04:10:37.076Z,98.14
2022-09-27T04:11:39.821Z,97.13
2022-09-27T04:12:42.657Z,95.88
2022-09-27T04:13:45.517Z,96.26
2022-09-27T04:14:48.212Z,95.63
2022-09-27T04:15:52.442Z,95.38
2022-09-27T04:16:55.857Z,95.53
2022-09-27T04:17:58.591Z,95.37
2022-09-27T04:19:02.399Z,95.75
2022-09-27T04:20:05.477Z,96.29
2022-09-27T04:21:08.713Z,96.05
2022-09-27T04:22:11.338Z,96.57
2022-09-27T04:23:14.004Z,96.65
2022-09-27T04:24:16.744Z,96.63
2022-09-27T04:25:19.470Z,96.50
2022-09-27T04:26:22.539Z,96.35
2022-09-27T04:27:25.266Z,96.76
2022-09-27T04:28:29.994Z,96.46
2022-09-27T04:29:33.096Z,96.34
2022-09-27T04:30:35.745Z,96.70
2022-09-27T04:31:38.683Z,96.26
2022-09-27T04:32:45.233Z,96.40
2022-09-27T04:33:47.899Z,95.87
2022-09-27T04:35:09.442Z,95.89
2022-09-27T04:36:28.065Z,96.07
2022-09-27T04:37:30.961Z,96.81
2022-09-27T04:38:33.957Z,97.33
2022-09-27T04:39:37.082Z,96.26
2022-09-27T04:40:39.855Z,95.86
2022-09-27T04:41:42.487Z,95.56
2022-09-27T04:42:45.153Z,95.40
2022-09-27T04:43:48.306Z,95.22
2022-09-27T04:44:50.974Z,95.34
2022-09-27T04:45:53.693Z,95.90
2022-09-27T04:46:56.576Z,95.26
2022-09-27T04:47:59.263Z,95.01
2022-09-27T04:49:02.171Z,95.04
2022-09-27T04:50:05.029Z,94.94
2022-09-27T04:51:07.857Z,95.72
2022-09-27T04:52:10.524Z,96.32
2022-09-27T04:53:16.476Z,96.50
2022-09-27T04:54:19.075Z,96.89
2022-09-27T04:55:22.526Z,96.52
2022-09-27T04:56:25.573Z,96.03
2022-09-27T04:57:28.368Z,96.93
2022-09-27T04:58:31.205Z,97.72
2022-09-27T04:59:33.988Z,98.68
2022-09-27T05:00:36.681Z,98.72
2022-09-27T05:01:39.801Z,99.23
2022-09-27T05:02:48.610Z,99.94
2022-09-27T05:03:51.319Z,100.00
2022-09-27T05:04:58.206Z,100.00
2022-09-27T05:06:01.313Z,100.00
2022-09-27T05:07:05.226Z,100.00
2022-09-27T05:08:08.022Z,100.00
2022-09-27T05:09:10.953Z,100.00
2022-09-27T05:10:13.800Z,100.00
2022-09-27T05:11:16.435Z,100.00
2022-09-27T05:12:19.605Z,100.00
2022-09-27T05:13:22.760Z,100.00
2022-09-27T05:15:34.581Z,100.00
2022-09-27T05:16:37.515Z,100.00
2022-09-27T05:17:40.269Z,100.00
2022-09-27T05:18:42.934Z,100.00
2022-09-27T05:19:45.636Z,100.00
2022-09-27T05:20:48.302Z,100.00
2022-09-27T05:21:51.019Z,100.00
2022-09-27T05:22:53.939Z,100.00
2022-09-27T05:23:56.739Z,100.00
2022-09-27T05:24:59.919Z,100.00
2022-09-27T05:26:07.250Z,100.00
2022-09-27T05:27:18.636Z,100.00
2022-09-27T05:28:21.502Z,100.00
2022-09-27T05:29:24.246Z,100.00
2022-09-27T05:30:27.805Z,100.00
2022-09-27T05:31:30.555Z,100.00
2022-09-27T05:32:33.322Z,100.00
2022-09-27T05:33:36.057Z,100.00
2022-09-27T05:34:38.950Z,100.00
2022-09-27T05:35:45.511Z,100.00
2022-09-27T05:36:48.741Z,100.00
2022-09-27T05:37:56.359Z,100.00
2022-09-27T05:38:59.127Z,100.00
2022-09-27T05:40:16.864Z,99.69
2022-09-27T05:41:25.649Z,99.95
2022-09-27T05:42:28.433Z,98.92
2022-09-27T05:43:31.900Z,98.69
2022-09-27T05:44:35.570Z,98.41
2022-09-27T05:45:44.535Z,98.42
2022-09-27T05:46:47.245Z,98.18
2022-09-27T05:47:57.732Z,98.40
2022-09-27T05:49:00.456Z,98.39
2022-09-27T05:50:03.326Z,98.56
2022-09-27T05:51:06.436Z,98.23
2022-09-27T05:52:13.237Z,97.86
2022-09-27T05:53:18.875Z,98.15
2022-09-27T05:54:21.419Z,97.66
2022-09-27T05:55:24.357Z,96.65
2022-09-27T05:56:27.029Z,96.42
2022-09-27T05:57:29.685Z,97.00
2022-09-27T05:58:32.369Z,96.87
2022-09-27T05:59:35.035Z,96.28
2022-09-27T06:00:38.655Z,96.46
2022-09-27T06:01:41.489Z,96.28
2022-09-27T06:02:44.564Z,95.13
2022-09-27T06:03:47.897Z,95.42
2022-09-27T06:04:50.514Z,95.43
2022-09-27T06:05:53.300Z,94.42
2022-09-27T06:06:59.345Z,94.51
2022-09-27T06:08:12.984Z,94.09
2022-09-27T06:09:17.217Z,93.00
2022-09-27T06:10:20.999Z,92.55
2022-09-27T06:11:23.891Z,92.06
2022-09-27T06:12:26.584Z,92.40
2022-09-27T06:13:29.200Z,92.68
2022-09-27T06:14:31.774Z,93.36
2022-09-27T06:15:37.502Z,93.92
2022-09-27T06:16:40.691Z,92.83
2022-09-27T06:17:43.454Z,92.86
2022-09-27T06:18:46.383Z,92.73
2022-09-27T06:19:49.571Z,92.12
2022-09-27T06:20:52.572Z,92.18
2022-09-27T06:21:55.134Z,92.66
2022-09-27T06:23:18.647Z,92.50
2022-09-27T06:24:21.469Z,92.08
2022-09-27T06:25:24.609Z,91.92
2022-09-27T06:26:27.560Z,92.02
2022-09-27T06:27:33.318Z,91.99
2022-09-27T06:28:36.000Z,92.19
2022-09-27T06:29:38.826Z,92.14
2022-09-27T06:30:47.482Z,92.31
2022-09-27T06:31:50.090Z,91.43
2022-09-27T06:33:00.738Z,91.37
2022-09-27T06:34:03.488Z,91.17
2022-09-27T06:35:07.226Z,90.57
2022-09-27T06:36:10.234Z,90.12
2022-09-27T06:37:13.061Z,89.85
2022-09-27T06:38:18.464Z,90.08
2022-09-27T06:39:21.157Z,89.97
2022-09-27T06:40:27.509Z,89.30
2022-09-27T06:41:30.967Z,88.30
2022-09-27T06:42:33.770Z,89.00
2022-09-27T06:43:37.224Z,89.24
2022-09-27T06:44:40.135Z,89.16
2022-09-27T06:45:43.052Z,88.93
2022-09-27T06:46:45.956Z,89.21
2022-09-27T06:47:48.694Z,88.98
2022-09-27T06:48:51.243Z,88.76
2022-09-27T06:49:53.923Z,88.93
2022-09-27T06:50:57.663Z,89.48
2022-09-27T06:52:00.691Z,88.75
2022-09-27T06:53:05.513Z,88.12
2022-09-27T06:54:08.099Z,88.41
2022-09-27T06:55:11.037Z,87.51
2022-09-27T06:56:13.948Z,88.41
2022-09-27T06:57:36.498Z,88.01
2022-09-27T06:58:57.881Z,87.24
2022-09-27T07:00:19.274Z,87.19
2022-09-27T07:01:22.005Z,85.77
2022-09-27T07:02:27.707Z,87.77
2022-09-27T07:03:40.116Z,86.31
2022-09-27T07:04:44.041Z,87.46
2022-09-27T07:06:03.664Z,87.08
2022-09-27T07:07:06.420Z,86.86
2022-09-27T07:08:12.558Z,87.29
2022-09-27T07:09:15.617Z,86.38
2022-09-27T07:10:18.429Z,85.69
2022-09-27T07:11:23.788Z,85.29
2022-09-27T07:12:26.425Z,85.19
2022-09-27T07:13:32.979Z,86.28
2022-09-27T07:14:36.085Z,85.36
2022-09-27T07:15:41.701Z,85.46
2022-09-27T07:16:45.774Z,84.76
2022-09-27T07:18:00.144Z,85.29
2022-09-27T07:19:02.793Z,83.84
2022-09-27T07:20:06.152Z,83.81
2022-09-27T07:21:09.381Z,83.97
2022-09-27T07:22:11.990Z,84.59
2022-09-27T07:23:15.013Z,84.53
2022-09-27T07:24:17.723Z,83.38
2022-09-27T07:25:20.492Z,84.28
2022-09-27T07:26:23.269Z,83.93
2022-09-27T07:27:26.809Z,84.97
2022-09-27T07:28:29.416Z,85.03
2022-09-27T07:29:32.740Z,84.76
2022-09-27T07:30:37.277Z,83.46
2022-09-27T07:31:40.106Z,83.88
2022-09-27T07:32:43.642Z,82.90
2022-09-27T07:33:46.307Z,81.52
2022-09-27T07:34:48.953Z,80.76
2022-09-27T07:35:51.815Z,80.59
2022-09-27T07:36:59.888Z,80.68
2022-09-27T07:38:03.916Z,80.50
2022-09-27T07:39:07.116Z,80.92
2022-09-27T07:40:10.813Z,81.51
2022-09-27T07:41:15.010Z,81.34
2022-09-27T07:42:17.606Z,80.69
2022-09-27T07:43:20.817Z,80.03
2022-09-27T07:44:23.498Z,80.61
2022-09-27T07:45:26.839Z,80.04
2022-09-27T07:46:31.094Z,79.74
2022-09-27T07:47:34.793Z,78.57
2022-09-27T07:48:37.419Z,78.58
2022-09-27T07:49:40.154Z,79.48
2022-09-27T07:50:43.308Z,78.52
2022-09-27T07:51:46.257Z,79.11
2022-09-27T07:52:52.628Z,77.40
2022-09-27T07:53:55.224Z,75.80
2022-09-27T07:54:59.314Z,76.71
2022-09-27T07:56:02.185Z,75.84
2022-09-27T07:57:05.008Z,75.67
2022-09-27T07:58:10.761Z,75.51
2022-09-27T07:59:13.600Z,75.70
2022-09-27T08:00:20.157Z,75.79
2022-09-27T08:01:22.957Z,74.63
2022-09-27T08:02:25.671Z,74.53
2022-09-27T08:03:29.020Z,73.45
2022-09-27T08:04:31.699Z,74.84
2022-09-27T08:05:36.369Z,73.29
2022-09-27T08:07:41.925Z,70.33
2022-09-27T08:08:46.162Z,69.58
2022-09-27T08:09:48.769Z,68.33
2022-09-27T08:10:51.326Z,67.50
2022-09-27T08:11:58.759Z,66.83
2022-09-27T08:13:03.724Z,66.89
2022-09-27T08:14:06.271Z,67.49
2022-09-27T08:15:09.586Z,68.47
2022-09-27T08:16:12.432Z,69.76
2022-09-27T08:17:15.609Z,70.98
2022-09-27T08:18:18.688Z,71.36
2022-09-27T08:19:21.770Z,73.29
2022-09-27T08:20:24.507Z,74.22
2022-09-27T08:21:27.172Z,74.80
2022-09-27T08:22:29.760Z,75.54
2022-09-27T08:23:32.380Z,75.81
2022-09-27T08:24:35.347Z,76.76
2022-09-27T08:25:38.154Z,77.40
2022-09-27T08:26:40.994Z,78.10
2022-09-27T08:27:43.656Z,78.57
2022-09-27T08:28:48.075Z,80.75
2022-09-27T08:29:50.875Z,79.95
2022-09-27T08:30:53.864Z,79.94
2022-09-27T08:31:56.425Z,81.19
2022-09-27T08:33:00.667Z,81.51
2022-09-27T08:34:03.565Z,83.41
2022-09-27T08:35:07.620Z,83.37
2022-09-27T08:36:13.578Z,83.05
2022-09-27T08:37:16.375Z,82.45
2022-09-27T08:38:19.029Z,83.03
2022-09-27T08:39:22.928Z,83.82
2022-09-27T08:40:37.276Z,83.19
2022-09-27T08:41:52.074Z,82.65
2022-09-27T08:43:21.513Z,83.06
2022-09-27T08:44:35.994Z,83.62
2022-09-27T08:46:14.591Z,82.24
2022-09-27T08:47:53.320Z,83.32
2022-09-27T08:49:05.817Z,82.65
2022-09-27T08:50:44.782Z,82.57
2022-09-27T08:51:52.739Z,82.47
2022-09-27T08:53:26.660Z,83.77
2022-09-27T08:54:32.174Z,84.31
2022-09-27T08:55:42.275Z,84.47
2022-09-27T08:56:45.491Z,84.45
2022-09-27T08:57:57.475Z,84.53
2022-09-27T08:59:13.923Z,85.76
2022-09-27T09:00:17.017Z,85.55
2022-09-27T09:01:20.444Z,86.07
2022-09-27T09:02:26.397Z,87.80
2022-09-27T09:03:34.006Z,88.00
2022-09-27T09:04:40.077Z,87.88
2022-09-27T09:05:42.881Z,86.81
2022-09-27T09:07:04.199Z,86.33
2022-09-27T09:08:19.836Z,86.48
2022-09-27T09:09:40.937Z,86.53
2022-09-27T09:11:01.743Z,86.50
2022-09-27T09:12:42.011Z,87.65
2022-09-27T09:14:08.235Z,87.80
2022-09-27T09:15:17.151Z,85.96
2022-09-27T09:16:35.499Z,84.98
2022-09-27T09:17:51.629Z,86.02
2022-09-27T09:19:12.945Z,86.56
2022-09-27T09:20:52.946Z,87.54
2022-09-27T09:22:05.139Z,88.63
2022-09-27T09:23:39.946Z,88.29
2022-09-27T09:24:45.568Z,89.17
2022-09-27T09:26:03.514Z,89.69
2022-09-27T09:27:24.656Z,89.37
2022-09-27T09:28:51.286Z,89.62
2022-09-27T09:30:06.267Z,89.91
2022-09-27T09:31:17.753Z,89.40
2022-09-27T09:32:29.030Z,90.93
2022-09-27T09:33:57.419Z,89.97
2022-09-27T09:35:12.407Z,89.62
2022-09-27T09:36:32.868Z,89.42
2022-09-27T09:37:53.858Z,90.06
2022-09-27T09:39:05.731Z,88.99
2022-09-27T09:40:29.194Z,89.63
2022-09-27T09:41:52.075Z,90.34
2022-09-27T09:43:07.445Z,90.01
2022-09-27T09:44:24.372Z,90.42
2022-09-27T09:45:34.067Z,91.61
2022-09-27T09:46:45.555Z,91.41
2022-09-27T09:48:28.076Z,90.75
2022-09-27T09:49:43.321Z,91.08
2022-09-27T09:50:49.778Z,91.80
2022-09-27T09:51:57.513Z,91.84
2022-09-27T09:53:23.366Z,92.06
2022-09-27T09:54:49.218Z,91.26
2022-09-27T09:56:18.433Z,90.23
2022-09-27T09:57:25.736Z,91.03
2022-09-27T09:58:35.218Z,90.65
2022-09-27T09:59:58.617Z,90.31
2022-09-27T10:01:30.993Z,90.22
2022-09-27T10:02:39.950Z,90.42
2022-09-27T10:03:42.629Z,91.15
2022-09-27T10:04:45.305Z,91.32
2022-09-27T10:05:48.258Z,91.13
2022-09-27T10:06:52.325Z,91.29
2022-09-27T10:08:01.048Z,91.62
2022-09-27T10:09:03.976Z,92.12
2022-09-27T10:10:07.961Z,92.00
2022-09-27T10:11:21.771Z,91.95
2022-09-27T10:12:24.566Z,91.76
2022-09-27T10:13:28.564Z,93.34
2022-09-27T10:14:32.899Z,92.60
2022-09-27T10:15:36.441Z,92.61
2022-09-27T10:16:42.729Z,92.35
2022-09-27T10:17:51.689Z,92.84
2022-09-27T10:19:00.449Z,93.38
2022-09-27T10:20:07.107Z,93.54
2022-09-27T10:21:21.103Z,93.35
2022-09-27T10:22:37.954Z,92.53
2022-09-27T10:24:18.184Z,92.18
2022-09-27T10:25:21.746Z,92.93
2022-09-27T10:26:25.126Z,91.78
2022-09-27T10:27:29.092Z,92.59
2022-09-27T10:28:34.677Z,92.51
2022-09-27T10:29:39.385Z,92.93
2022-09-27T10:30:42.144Z,92.68
2022-09-27T10:31:48.088Z,92.44
2022-09-27T10:32:54.029Z,93.36
2022-09-27T10:34:05.700Z,93.82
2022-09-27T10:35:30.371Z,94.29
2022-09-27T10:36:35.654Z,93.78
2022-09-27T10:37:38.404Z,93.89
2022-09-27T10:38:56.209Z,94.15
2022-09-27T10:39:58.784Z,94.27
2022-09-27T10:41:28.582Z,93.71
2022-09-27T10:42:38.070Z,95.51
2022-09-27T10:43:40.944Z,95.26
2022-09-27T10:44:43.984Z,94.12
2022-09-27T10:45:47.687Z,94.70
2022-09-27T10:46:53.537Z,95.26
2022-09-27T10:47:57.043Z,95.26
2022-09-27T10:49:27.415Z,95.64
2022-09-27T10:50:50.269Z,94.86
2022-09-27T10:52:03.535Z,95.96
2022-09-27T10:53:12.206Z,97.22
2022-09-27T10:54:23.896Z,96.54
2022-09-27T10:55:28.036Z,96.39
2022-09-27T10:56:35.240Z,96.53
2022-09-27T10:57:41.789Z,97.27
2022-09-27T10:58:47.204Z,97.62
2022-09-27T10:59:59.114Z,97.72
2022-09-27T11:01:12.534Z,97.57
2022-09-27T11:02:32.440Z,97.75
2022-09-27T11:03:47.222Z,98.14
2022-09-27T11:05:15.228Z,98.03
2022-09-27T11:06:29.947Z,96.33
2022-09-27T11:07:32.715Z,95.61
2022-09-27T11:08:36.050Z,94.75
2022-09-27T11:09:54.811Z,94.81
2022-09-27T11:11:20.178Z,93.72
2022-09-27T11:12:23.315Z,92.42
2022-09-27T11:13:26.018Z,92.46
2022-09-27T11:14:32.240Z,90.52
2022-09-27T11:15:53.044Z,88.90
2022-09-27T11:16:55.522Z,88.26
2022-09-27T11:18:13.016Z,87.85
2022-09-27T11:19:41.880Z,87.25
2022-09-27T11:20:59.596Z,86.76
2022-09-27T11:22:02.706Z,86.91
2022-09-27T11:23:25.453Z,86.01
2022-09-27T11:24:39.810Z,86.91
2022-09-27T11:26:01.267Z,86.71
2022-09-27T11:27:37.359Z,86.25
2022-09-27T11:28:58.833Z,86.45
2022-09-27T11:30:15.263Z,88.34
2022-09-27T11:31:36.544Z,87.49
2022-09-27T11:32:50.337Z,87.16
2022-09-27T11:34:04.716Z,87.20
2022-09-27T11:35:26.846Z,87.03
2022-09-27T11:36:41.762Z,86.80
2022-09-27T11:37:50.556Z,84.54
2022-09-27T11:39:22.762Z,84.17
2022-09-27T11:40:45.372Z,84.35
2022-09-27T11:41:55.721Z,84.81
2022-09-27T11:43:18.211Z,84.33
2022-09-27T11:44:21.477Z,84.36
2022-09-27T11:46:14.176Z,84.14
2022-09-27T11:47:34.259Z,83.04
2022-09-27T11:49:11.089Z,85.49
2022-09-27T11:50:23.720Z,86.52
2022-09-27T11:51:38.276Z,86.66
2022-09-27T11:52:59.940Z,85.32
2022-09-27T11:54:25.183Z,85.11
2022-09-27T11:55:46.703Z,84.84
2022-09-27T11:57:09.659Z,83.73
2022-09-27T11:58:19.028Z,83.31
2022-09-27T12:00:00.206Z,82.91
2022-09-27T12:01:28.174Z,82.41
2022-09-27T12:02:58.323Z,81.50
2022-09-27T12:04:12.694Z,83.05
2022-09-27T12:05:32.759Z,84.12
2022-09-27T12:07:12.932Z,85.59
2022-09-27T12:08:18.376Z,86.44
2022-09-27T12:09:25.962Z,86.61
2022-09-27T12:10:29.091Z,87.37
2022-09-27T12:11:41.468Z,86.06
2022-09-27T12:12:51.796Z,87.05
2022-09-27T12:13:59.590Z,87.33
2022-09-27T12:15:29.814Z,88.13
2022-09-27T12:16:34.850Z,87.93
2022-09-27T12:17:42.927Z,88.54
2022-09-27T12:18:51.281Z,88.51
2022-09-27T12:20:02.193Z,87.50
2022-09-27T12:21:09.484Z,88.34
2022-09-27T12:22:16.717Z,88.53
2022-09-27T12:23:25.757Z,87.53
2022-09-27T12:24:30.733Z,88.15
2022-09-27T12:25:42.929Z,85.73
2022-09-27T12:26:45.656Z,86.53
2022-09-27T12:28:04.372Z,87.21
2022-09-27T12:29:17.650Z,87.84
2022-09-27T12:30:20.634Z,87.85
2022-09-27T12:31:30.732Z,87.24
2022-09-27T12:33:08.191Z,87.91
2022-09-27T12:34:22.463Z,89.89
2022-09-27T12:35:29.627Z,90.17
2022-09-27T12:36:38.884Z,90.25
2022-09-27T12:37:50.517Z,90.70
2022-09-27T12:39:25.978Z,89.43
2022-09-27T12:40:45.263Z,88.78
2022-09-27T12:42:02.503Z,90.22
2022-09-27T12:44:39.998Z,87.81
2022-09-27T12:45:45.320Z,86.54
2022-09-27T12:47:03.366Z,86.36
2022-09-27T12:48:33.262Z,85.01
2022-09-27T12:49:38.619Z,83.23
2022-09-27T12:50:46.174Z,82.15
2022-09-27T12:51:59.187Z,82.49
2022-09-27T12:53:14.549Z,80.84
2022-09-27T12:54:43.825Z,78.83
2022-09-27T12:56:09.215Z,78.08
2022-09-27T12:57:27.081Z,74.46
2022-09-27T12:58:38.927Z,77.24
2022-09-27T13:00:15.065Z,78.52
2022-09-27T13:01:29.126Z,79.25
2022-09-27T13:03:23.665Z,78.56
2022-09-27T13:04:43.810Z,79.92
2022-09-27T13:06:12.154Z,80.37
2022-09-27T13:07:35.391Z,80.79
2022-09-27T13:08:57.720Z,82.03
2022-09-27T13:10:41.671Z,81.94
2022-09-27T13:12:03.075Z,83.52
2022-09-27T13:13:10.819Z,84.84
2022-09-27T13:14:24.235Z,85.79
2022-09-27T13:15:32.623Z,85.57
2022-09-27T13:16:43.979Z,84.86
2022-09-27T13:17:56.434Z,84.31
2022-09-27T13:19:03.797Z,83.41
2022-09-27T13:20:33.447Z,84.11
2022-09-27T13:21:51.456Z,84.63
2022-09-27T13:24:03.784Z,86.29
2022-09-27T13:25:53.035Z,87.05
2022-09-27T13:27:01.181Z,88.00
2022-09-27T13:28:03.715Z,88.43
2022-09-27T13:29:24.550Z,89.37
2022-09-27T13:30:33.034Z,90.04
2022-09-27T13:31:53.830Z,91.40
2022-09-27T13:33:14.231Z,90.62
2022-09-27T13:34:54.030Z,90.91
2022-09-27T13:36:24.740Z,89.27
2022-09-27T13:37:36.257Z,86.49
2022-09-27T13:39:01.583Z,87.61
2022-09-27T13:40:16.280Z,88.41
2022-09-27T13:41:21.432Z,89.29
2022-09-27T13:43:07.247Z,90.04
2022-09-27T13:44:26.882Z,91.67
2022-09-27T13:45:33.959Z,92.75
2022-09-27T13:46:37.952Z,92.96
2022-09-27T13:47:47.615Z,92.10
2022-09-27T13:48:56.487Z,91.38
2022-09-27T13:50:17.905Z,92.34
2022-09-27T13:51:31.951Z,93.65
2022-09-27T13:52:39.875Z,94.04
2022-09-27T13:53:46.979Z,91.98
2022-09-27T13:54:58.019Z,92.59
2022-09-27T13:56:01.475Z,92.85
2022-09-27T13:57:07.666Z,93.14
2022-09-27T13:58:16.527Z,90.55
2022-09-27T13:59:32.867Z,79.91
2022-09-27T14:00:43.871Z,79.74
2022-09-27T14:01:52.699Z,80.94
2022-09-27T14:03:03.328Z,81.61
2022-09-27T14:04:26.120Z,82.92
2022-09-27T14:05:59.603Z,86.05
2022-09-27T14:07:04.149Z,89.92
2022-09-27T14:08:15.427Z,91.02
2022-09-27T14:09:21.932Z,91.01
2022-09-27T14:11:54.863Z,92.30
2022-09-27T14:13:00.345Z,91.49
2022-09-27T14:14:04.839Z,92.61
2022-09-27T14:15:19.418Z,91.56
2022-09-27T14:16:22.225Z,93.70
2022-09-27T14:17:26.454Z,92.50
2022-09-27T14:18:30.303Z,93.20
2022-09-27T14:19:33.577Z,92.34
2022-09-27T14:20:40.746Z,93.14
2022-09-27T14:21:43.528Z,93.89
2022-09-27T14:22:54.741Z,94.13
2022-09-27T14:24:25.865Z,93.15
2022-09-27T14:25:28.476Z,94.77
2022-09-27T14:26:31.080Z,94.26
2022-09-27T14:27:38.209Z,92.88
2022-09-27T14:28:42.597Z,92.49
2022-09-27T14:29:47.759Z,93.85
2022-09-27T14:31:17.998Z,94.06
2022-09-27T14:32:23.820Z,94.78
2022-09-27T14:33:32.069Z,96.83
2022-09-27T14:34:34.790Z,92.90
2022-09-27T14:36:07.199Z,91.90
2022-09-27T14:37:26.412Z,92.82
2022-09-27T14:38:38.244Z,92.05
2022-09-27T14:39:41.530Z,92.67
2022-09-27T14:40:54.252Z,93.74
2022-09-27T14:42:03.589Z,94.61
2022-09-27T14:43:06.305Z,95.81
2022-09-27T14:44:22.571Z,96.56
2022-09-27T14:45:40.353Z,96.51
2022-09-27T14:46:43.152Z,95.42
2022-09-27T14:47:48.412Z,95.79
2022-09-27T14:48:51.140Z,94.51
2022-09-27T14:50:02.064Z,94.18
2022-09-27T14:51:21.018Z,94.27
2022-09-27T14:52:30.070Z,94.10
2022-09-27T14:53:35.746Z,93.19
2022-09-27T14:54:38.312Z,93.36
2022-09-27T14:55:45.812Z,92.91
2022-09-27T14:56:52.775Z,93.72
2022-09-27T14:58:00.177Z,91.82
2022-09-27T14:59:05.810Z,92.28
2022-09-27T15:00:22.044Z,91.25
2022-09-27T15:01:24.980Z,86.36
2022-09-27T15:02:28.390Z,86.16
2022-09-27T15:03:38.441Z,83.72
2022-09-27T15:04:46.989Z,85.23